createdAt,value
2022-11-28T00:01:31.836Z,5.00
2022-11-28T00:06:36.863Z,5.00
2022-11-28T00:11:41.869Z,5.00
2022-11-28T00:16:45.746Z,4.90
2022-11-28T00:21:48.901Z,4.90
2022-11-28T00:26:53.497Z,4.90
2022-11-28T00:31:56.677Z,4.80
2022-11-28T00:36:59.794Z,4.80
2022-11-28T00:42:04.334Z,4.80
2022-11-28T00:47:07.722Z,4.80
2022-11-28T00:52:10.887Z,4.70
2022-11-28T00:57:15.411Z,4.80
2022-11-28T01:02:18.707Z,4.60
2022-11-28T01:07:21.840Z,4.70
2022-11-28T01:12:26.386Z,4.70
2022-11-28T01:17:29.491Z,4.70
2022-11-28T01:22:32.660Z,4.60
2022-11-28T01:27:37.104Z,4.50
2022-11-28T01:32:40.398Z,4.40
2022-11-28T01:37:43.699Z,4.50
2022-11-28T01:42:48.470Z,4.50
2022-11-28T01:47:56.490Z,4.50
2022-11-28T01:53:06.168Z,4.40
2022-11-28T01:58:11.928Z,4.40
2022-11-28T02:03:20.993Z,4.40
2022-11-28T02:08:25.532Z,4.30
2022-11-28T02:13:39.758Z,4.10
2022-11-28T02:18:57.206Z,4.30
2022-11-28T02:24:41.832Z,4.20
2022-11-28T02:30:08.331Z,4.30
2022-11-28T02:35:19.893Z,4.20
2022-11-28T02:40:26.968Z,4.10
2022-11-28T02:45:37.263Z,4.10
2022-11-28T02:50:47.779Z,3.90
2022-11-28T02:55:52.803Z,4.00
2022-11-28T03:00:57.081Z,3.90
2022-11-28T03:06:09.482Z,3.90
2022-11-28T03:11:20.036Z,3.90
2022-11-28T03:16:28.895Z,3.80
2022-11-28T03:21:40.326Z,3.90
2022-11-28T03:26:53.101Z,3.80
2022-11-28T03:31:59.646Z,3.90
2022-11-28T03:37:11.142Z,3.80
2022-11-28T03:42:18.733Z,3.90
2022-11-28T03:47:24.550Z,3.80
2022-11-28T03:52:32.443Z,3.80
2022-11-28T03:57:42.353Z,3.70
2022-11-28T04:02:52.493Z,3.70
2022-11-28T04:08:01.369Z,3.70
2022-11-28T04:13:12.080Z,3.70
2022-11-28T04:18:22.507Z,3.70
2022-11-28T04:23:28.035Z,3.60
2022-11-28T04:28:34.747Z,3.60
2022-11-28T04:33:43.030Z,3.60
2022-11-28T04:38:56.201Z,3.70
2022-11-28T04:44:03.357Z,3.70
2022-11-28T04:49:06.787Z,3.80
2022-11-28T04:54:17.422Z,3.90
2022-11-28T04:59:22.492Z,4.00
2022-11-28T05:04:25.732Z,4.00
2022-11-28T05:09:30.340Z,4.10
2022-11-28T05:14:33.538Z,4.10
2022-11-28T05:19:36.613Z,4.20
2022-11-28T05:24:41.102Z,4.30
2022-11-28T05:29:51.920Z,4.30
2022-11-28T05:34:55.437Z,4.30
2022-11-28T05:40:00.121Z,4.30
2022-11-28T05:45:04.417Z,4.30
2022-11-28T05:50:08.358Z,4.50
2022-11-28T05:55:12.883Z,4.40
2022-11-28T06:00:16.838Z,4.40
2022-11-28T06:05:41.064Z,4.40
2022-11-28T06:10:44.650Z,4.40
2022-11-28T06:15:47.799Z,4.30
2022-11-28T06:20:50.950Z,4.30
2022-11-28T06:25:55.522Z,4.20
2022-11-28T06:30:58.709Z,4.10
2022-11-28T06:36:04.949Z,4.10
2022-11-28T06:41:11.611Z,4.00
2022-11-28T06:46:16.911Z,3.90
2022-11-28T06:51:21.333Z,3.90
2022-11-28T06:56:26.001Z,3.80
2022-11-28T07:01:31.163Z,3.70
2022-11-28T07:06:34.814Z,3.80
2022-11-28T07:11:41.996Z,3.80
2022-11-28T07:16:45.229Z,3.80
2022-11-28T07:21:48.888Z,3.80
2022-11-28T07:26:53.449Z,3.90
2022-11-28T07:31:56.645Z,4.00
2022-11-28T07:36:59.975Z,4.10
2022-11-28T07:42:05.226Z,4.20
2022-11-28T07:47:08.390Z,4.20
2022-11-28T07:52:11.683Z,4.30
2022-11-28T07:57:16.262Z,4.40
2022-11-28T08:02:19.544Z,4.40
2022-11-28T08:07:22.973Z,4.40
2022-11-28T08:12:27.642Z,4.50
2022-11-28T08:17:30.872Z,4.50
2022-11-28T08:22:34.070Z,4.60
2022-11-28T08:27:38.588Z,4.60
2022-11-28T08:32:41.686Z,4.60
2022-11-28T08:37:45.057Z,4.80
2022-11-28T08:42:49.514Z,4.90
2022-11-28T08:47:52.697Z,5.00
2022-11-28T08:52:56.272Z,5.00
2022-11-28T08:58:00.732Z,5.20
2022-11-28T09:03:04.599Z,5.20
2022-11-28T09:08:10.338Z,5.20
2022-11-28T09:13:16.456Z,5.40
2022-11-28T09:18:19.665Z,5.50
2022-11-28T09:23:22.839Z,5.50
2022-11-28T09:28:28.944Z,5.60
2022-11-28T09:33:32.394Z,5.60
2022-11-28T09:38:36.003Z,5.70
2022-11-28T09:43:45.360Z,5.80
2022-11-28T09:48:54.664Z,6.10
2022-11-28T09:54:04.264Z,6.10
2022-11-28T09:59:17.439Z,6.00
2022-11-28T10:04:28.785Z,6.00
2022-11-28T10:09:40.502Z,6.10
2022-11-28T10:14:58.312Z,6.20
2022-11-28T10:20:05.535Z,6.20
2022-11-28T10:25:17.092Z,6.10
2022-11-28T10:30:25.005Z,6.10
2022-11-28T10:35:34.126Z,6.20
2022-11-28T10:40:44.515Z,6.10
2022-11-28T10:45:57.953Z,6.20
2022-11-28T10:51:12.101Z,6.10
2022-11-28T10:56:26.809Z,6.20
2022-11-28T11:01:36.329Z,6.40
2022-11-28T11:06:53.847Z,6.50
2022-11-28T11:12:06.845Z,6.60
2022-11-28T11:17:25.145Z,6.60
2022-11-28T11:22:31.913Z,6.70
2022-11-28T11:27:37.973Z,6.70
2022-11-28T11:32:51.254Z,6.80
2022-11-28T11:38:13.750Z,6.90
2022-11-28T11:43:26.888Z,7.00
2022-11-28T11:48:37.489Z,7.00
2022-11-28T11:53:40.636Z,6.80
2022-11-28T11:58:46.914Z,7.10
2022-11-28T12:03:56.837Z,7.30
2022-11-28T12:09:07.569Z,7.30
2022-11-28T12:14:25.875Z,7.30
2022-11-28T12:19:39.273Z,7.00
2022-11-28T12:24:48.973Z,6.90
2022-11-28T12:30:02.505Z,6.90
2022-11-28T12:35:23.365Z,6.90
2022-11-28T12:40:35.914Z,6.80
2022-11-28T12:45:46.005Z,6.80
2022-11-28T12:50:57.578Z,7.00
2022-11-28T12:56:09.972Z,6.80
2022-11-28T13:01:29.513Z,6.90
2022-11-28T13:06:42.703Z,6.80
2022-11-28T13:11:57.831Z,6.80
2022-11-28T13:17:12.308Z,6.80
2022-11-28T13:22:23.785Z,6.70
2022-11-28T13:27:36.275Z,6.60
2022-11-28T13:32:45.827Z,6.40
2022-11-28T13:43:28.818Z,6.30
2022-11-28T13:49:14.053Z,6.20
2022-11-28T13:54:51.525Z,6.20
2022-11-28T13:59:59.008Z,6.00
2022-11-28T14:05:03.430Z,6.00
2022-11-28T14:10:29.499Z,5.90
2022-11-28T14:15:52.765Z,5.70
2022-11-28T14:20:58.973Z,5.80
2022-11-28T14:26:14.620Z,5.60
2022-11-28T14:31:29.093Z,5.50
2022-11-28T14:36:34.328Z,5.50
2022-11-28T14:43:00.195Z,5.40
2022-11-28T14:48:19.311Z,5.30
2022-11-28T14:53:44.702Z,5.30
2022-11-28T14:58:49.758Z,5.20
2022-11-28T15:04:00.179Z,5.30
2022-11-28T15:09:08.311Z,5.10
2022-11-28T15:14:20.723Z,5.00
2022-11-28T15:19:31.117Z,4.90
2022-11-28T15:24:36.290Z,4.90
2022-11-28T15:29:39.719Z,4.80
2022-11-28T15:34:44.819Z,4.80
2022-11-28T15:39:50.030Z,4.70
2022-11-28T15:44:57.978Z,4.80
2022-11-28T15:50:13.650Z,4.70
2022-11-28T15:55:17.886Z,4.70
2022-11-28T16:00:24.310Z,4.70
2022-11-28T16:05:30.101Z,4.60
2022-11-28T16:10:37.860Z,4.60
2022-11-28T16:15:49.848Z,4.60
2022-11-28T16:20:56.089Z,4.60
2022-11-28T16:26:01.415Z,4.60
2022-11-28T16:31:10.899Z,4.60
2022-11-28T16:36:22.690Z,4.70
2022-11-28T16:41:26.809Z,4.60
2022-11-28T16:46:33.785Z,4.50
2022-11-28T16:51:40.240Z,4.60
2022-11-28T16:56:44.578Z,4.60
2022-11-28T17:01:52.732Z,4.50
2022-11-28T17:06:58.600Z,4.60
2022-11-28T17:12:04.765Z,4.50
2022-11-28T17:17:13.435Z,4.40
2022-11-28T17:22:20.837Z,4.50
2022-11-28T17:27:23.930Z,4.50
2022-11-28T17:32:27.039Z,4.40
2022-11-28T17:37:31.464Z,4.40
2022-11-28T17:42:34.573Z,4.30
2022-11-28T17:47:37.671Z,4.30
2022-11-28T17:52:42.304Z,4.20
2022-11-28T17:57:45.507Z,4.20
2022-11-28T18:02:49.103Z,4.30
2022-11-28T18:07:53.700Z,4.30
2022-11-28T18:12:56.920Z,4.30
2022-11-28T18:18:02.698Z,4.30
2022-11-28T18:23:10.318Z,4.40
2022-11-28T18:28:18.798Z,4.20
2022-11-28T18:33:23.956Z,4.20
2022-11-28T18:38:28.717Z,4.20
2022-11-28T18:43:32.524Z,4.20
2022-11-28T18:48:38.197Z,4.20
2022-11-28T18:53:42.912Z,4.20
2022-11-28T18:58:48.267Z,4.10
2022-11-28T19:03:53.349Z,4.10
2022-11-28T19:08:59.109Z,4.00
2022-11-28T20:06:35.595Z,4.20
2022-11-28T20:11:40.631Z,4.10
2022-11-28T20:16:45.910Z,4.00
2022-11-28T20:21:54.249Z,4.00
2022-11-28T20:26:57.439Z,3.90
2022-11-28T20:32:00.936Z,4.10
2022-11-28T20:37:05.908Z,4.20
2022-11-28T20:42:09.430Z,4.00
2022-11-28T20:47:12.634Z,4.10
2022-11-28T20:52:17.555Z,4.10
2022-11-28T20:57:22.179Z,4.10
2022-11-28T21:02:25.745Z,4.10
2022-11-28T21:07:31.369Z,4.10
2022-11-28T21:12:34.557Z,4.20
2022-11-28T21:17:37.763Z,4.20
2022-11-28T21:22:42.345Z,4.10
2022-11-28T21:27:45.414Z,4.10
2022-11-28T21:32:48.482Z,4.10
2022-11-28T21:37:52.878Z,4.10
2022-11-28T21:42:56.750Z,4.10
2022-11-28T21:47:59.819Z,4.10
2022-11-28T21:53:04.730Z,4.10
2022-11-28T21:58:09.171Z,4.00
2022-11-28T22:03:14.290Z,4.00
2022-11-28T22:08:19.629Z,4.10
2022-11-28T22:13:22.801Z,4.00
2022-11-28T22:18:26.045Z,4.10
2022-11-28T22:23:33.181Z,3.90
2022-11-28T22:28:37.392Z,3.90
2022-11-28T22:33:40.963Z,3.80
2022-11-28T22:38:47.196Z,3.70
2022-11-28T22:43:53.212Z,3.70
2022-11-28T22:48:56.483Z,3.70
2022-11-28T22:54:02.277Z,3.60
2022-11-28T22:59:06.109Z,3.70
2022-11-28T23:04:10.128Z,3.70
2022-11-28T23:09:15.316Z,3.50
2022-11-28T23:14:20.607Z,3.50
2022-11-28T23:19:24.653Z,3.60
2022-11-28T23:24:29.353Z,3.60
2022-11-28T23:29:33.103Z,3.40
2022-11-28T23:34:36.311Z,3.30
2022-11-28T23:39:40.742Z,3.30
2022-11-28T23:44:44.420Z,3.30
2022-11-28T23:49:47.706Z,3.20
2022-11-28T23:54:52.139Z,3.20
2022-11-28T23:59:55.292Z,3.20
